Magnus Heinason — OW2252 — position and weather

sailwx.info

Track history (hours):
 
Tides and Currents Weather Stations Pressure Air Temp Water Temp Dewpoint Dewpoint Depression Visibility Wind Speed Wind Dir Waves Ship Positions

Oceanographic research ship Magnus Heinason (Faroe Islands)

Detailed information on ship capabilities available from ARCUS's ALIAS (Arctic Logistics Information and Support) project.

Last reported at 2014-Aug-27 10:33 UTC. Time now 2014-Aug-27 11:13 UTC.
Position N 62°00' W 006°46'.

Length 44 m; draft 4 m.

Type: . MMSI: 231041000.

Date/timePositionNaut miles runAvg speedWind from/ knotsBaromVisibWave heightAir tempDewpointWater temp
2014-Aug-27 10:33N 62°00' W 006°46'0 0.0
2014-Aug-27 09:34N 62°00' W 006°46'0 0.0
2014-Aug-27 08:34N 62°00' W 006°46'0 0.0
2014-Aug-27 07:33N 62°00' W 006°46'0 0.0
2014-Aug-27 06:33N 62°00' W 006°46'0 0.0
2014-Aug-27 05:33N 62°00' W 006°46'0 0.0
2014-Aug-27 04:34N 62°00' W 006°46'0 0.0
2014-Aug-27 03:34N 62°00' W 006°46'0 0.0
2014-Aug-27 02:34N 62°00' W 006°46'0 0.0
2014-Aug-27 01:33N 62°00' W 006°46'0 0.0
2014-Aug-27 00:33N 62°00' W 006°46'0 0.0
2014-Aug-26 23:32N 62°00' W 006°46'0 0.0
2014-Aug-26 22:33N 62°00' W 006°46'0 0.0
2014-Aug-26 21:33N 62°00' W 006°46'0 0.0
2014-Aug-26 20:34N 62°00' W 006°46'0 0.0
2014-Aug-26 19:33N 62°00' W 006°46'0 0.0
2014-Aug-26 18:33N 62°00' W 006°46'0 0.0
2014-Aug-26 17:34N 62°00' W 006°46'0 0.0
2014-Aug-26 16:34N 62°00' W 006°46'0 0.0
2014-Aug-26 15:33N 62°00' W 006°46'0 0.0
2014-Aug-26 14:33N 62°00' W 006°46'0 0.0
2014-Aug-26 13:33N 62°00' W 006°46'0 0.0
2014-Aug-26 12:33N 62°00' W 006°46'0 0.0
2014-Aug-26 11:33N 62°00' W 006°46'0 0.0
2014-Aug-26 10:33N 62°00' W 006°46'0 0.0
2014-Aug-26 09:33N 62°00' W 006°46'0 0.0
2014-Aug-26 08:33N 62°00' W 006°46'0 0.0
2014-Aug-26 07:34N 62°00' W 006°46'0 0.0
2014-Aug-26 06:33N 62°00' W 006°46'0 0.0
2014-Aug-26 05:33N 62°00' W 006°46'0 0.0
2014-Aug-26 04:33N 62°00' W 006°46'0 0.0
2014-Aug-26 03:33N 62°00' W 006°46'0 0.0
2014-Aug-26 02:34N 62°00' W 006°46'0 0.0
2014-Aug-26 01:33N 62°00' W 006°46'0 0.0
2014-Aug-26 00:33N 62°00' W 006°46'0 0.0
2014-Aug-25 23:33N 62°00' W 006°46'0 0.0
2014-Aug-25 22:33N 62°00' W 006°46'0 0.0
2014-Aug-25 21:33N 62°00' W 006°46'0 0.0
2014-Aug-25 20:33N 62°00' W 006°46'0 0.0
2014-Aug-25 19:33N 62°00' W 006°46'0 0.0
2014-Aug-25 18:33N 62°00' W 006°46'0 0.0
2014-Aug-25 17:33N 62°00' W 006°46'0 0.0
2014-Aug-25 16:34N 62°00' W 006°46'0 0.0
2014-Aug-25 15:33N 62°00' W 006°46'4 3.5
2014-Aug-25 14:33N 62°03' W 006°51'2 2.2
2014-Aug-25 13:32N 62°04' W 006°47'5 5.2
2014-Aug-25 12:34N 62°09' W 006°46'2 2.4
2014-Aug-25 11:33N 62°07' W 006°45'4 4.4
2014-Aug-25 10:33N 62°06' W 006°35'5 5.0
2014-Aug-25 09:32N 62°11' W 006°32'10 9.6
2014-Aug-25 08:33N 62°03' W 006°41'3 3.4
2014-Aug-25 07:34N 62°00' W 006°46'0 0.0
2014-Aug-25 06:33N 62°00' W 006°46'0 0.0
2014-Aug-25 05:34N 62°00' W 006°46'0 0.0
2014-Aug-25 04:33N 62°00' W 006°46'0 0.0
2014-Aug-25 03:34N 62°00' W 006°46'0 0.0
2014-Aug-25 02:34N 62°00' W 006°46'0 0.0
2014-Aug-25 01:33N 62°00' W 006°46'0 0.0
2014-Aug-25 00:34N 62°00' W 006°46'0 0.0
2014-Aug-24 23:34N 62°00' W 006°46'0 0.0
2014-Aug-24 22:33N 62°00' W 006°46'0 0.0
2014-Aug-24 21:33N 62°00' W 006°46'0 0.0
2014-Aug-24 20:34N 62°00' W 006°46'0 0.0
2014-Aug-24 19:33N 62°00' W 006°46'0 0.0
2014-Aug-24 18:33N 62°00' W 006°46'0 0.0
2014-Aug-24 17:34N 62°00' W 006°46'0 0.0
2014-Aug-24 16:33N 62°00' W 006°46'0 0.0
2014-Aug-24 15:33N 62°00' W 006°46'0 0.0
2014-Aug-24 14:34N 62°00' W 006°46'0 0.0
2014-Aug-24 13:33N 62°00' W 006°46'0 0.0
2014-Aug-24 12:33N 62°00' W 006°46'0 0.0
2014-Aug-24 11:34N 62°00' W 006°46'0 0.0
2014-Aug-24 10:34N 62°00' W 006°46'0 0.0
2014-Aug-24 09:33N 62°00' W 006°46'0 0.0
2014-Aug-24 08:34N 62°00' W 006°46'0 0.0
2014-Aug-24 07:34N 62°00' W 006°46'0 0.0
2014-Aug-24 06:33N 62°00' W 006°46'0 0.0
2014-Aug-24 05:34N 62°00' W 006°46'0 0.0
2014-Aug-24 04:33N 62°00' W 006°46'0 0.0
2014-Aug-24 03:33N 62°00' W 006°46'0 0.0
2014-Aug-24 02:33N 62°00' W 006°46'0 0.0
2014-Aug-24 01:34N 62°00' W 006°46'0 0.0
2014-Aug-24 00:34N 62°00' W 006°46'0 0.0
2014-Aug-23 23:34N 62°00' W 006°46'0 0.0
2014-Aug-23 22:33N 62°00' W 006°46'0 0.0
2014-Aug-23 21:33N 62°00' W 006°46'0 0.0
2014-Aug-23 20:34N 62°00' W 006°46'0 0.2
2014-Aug-23 19:34N 62°00' W 006°46'0 0.0
2014-Aug-23 03:34N 62°00' W 006°46'0 0.0
2014-Aug-23 02:34N 62°00' W 006°46'0 0.0
2014-Aug-23 01:33N 62°00' W 006°46'0 0.0
2014-Aug-23 00:34N 62°00' W 006°46'0 0.0
2014-Aug-22 23:34N 62°00' W 006°46'0 0.0
2014-Aug-22 22:34N 62°00' W 006°46'0 0.0
2014-Aug-22 21:34N 62°00' W 006°46'0 0.0
2014-Aug-22 20:33N 62°00' W 006°46'0 0.0
2014-Aug-22 19:33N 62°00' W 006°46'0 0.0
2014-Aug-22 18:34N 62°00' W 006°46'0 0.0
2014-Aug-22 17:34N 62°00' W 006°46'0 0.0
2014-Aug-22 16:34N 62°00' W 006°46'0 0.0
2014-Aug-22 15:34N 62°00' W 006°46'0 0.0
2014-Aug-22 14:34N 62°00' W 006°46'0 0.0
2014-Aug-22 13:34N 62°00' W 006°46'0 0.0
2014-Aug-22 12:33N 62°00' W 006°46'0 0.0
2014-Aug-22 11:33N 62°00' W 006°46'0 0.0
2014-Aug-22 10:33N 62°00' W 006°46'0 0.0
2014-Aug-22 09:33N 62°00' W 006°46'0 0.0
2014-Aug-22 08:33N 62°00' W 006°46'0 0.0
2014-Aug-22 07:34N 62°00' W 006°46'0 0.0
2014-Aug-22 06:34N 62°00' W 006°46'0 0.0
2014-Aug-22 05:33N 62°00' W 006°46'0 0.0
2014-Aug-22 04:34N 62°00' W 006°46'0 0.0
2014-Aug-22 03:33N 62°00' W 006°46'0 0.0
2014-Aug-22 02:34N 62°00' W 006°46'0 0.0
2014-Aug-22 01:33N 62°00' W 006°46'0 0.0
2014-Aug-22 00:34N 62°00' W 006°46'0 0.0
2014-Aug-21 23:34N 62°00' W 006°46'0 0.0
2014-Aug-21 22:34N 62°00' W 006°46'0 0.0
2014-Aug-21 21:34N 62°00' W 006°46'0 0.0
2014-Aug-21 20:34N 62°00' W 006°46'0 0.0
2014-Aug-21 19:34N 62°00' W 006°46'0 0.0
2014-Aug-21 18:34N 62°00' W 006°46'0 0.0
2014-Aug-21 17:34N 62°00' W 006°46'0 0.1
2014-Aug-21 16:34N 62°00' W 006°46'4 3.6
2014-Aug-21 15:34N 61°57' W 006°50'9 8.6
2014-Aug-21 14:34N 62°04' W 007°02'11 5.3
2014-Aug-21 12:27N 62°11' W 007°20'10 2.4
2014-Aug-21 08:33N 62°13' W 007°39'1 1.3
2014-Aug-21 07:34N 62°13' W 007°41'7 3.4
2014-Aug-21 05:31N 62°20' W 007°39'7 3.6
2014-Aug-21 03:33N 62°25' W 007°50'3 2.8
2014-Aug-21 02:33N 62°26' W 007°55'9 4.5
2014-Aug-21 00:30N 62°17' W 007°52'4 4.8
2014-Aug-20 23:33N 62°14' W 007°59'4 3.9
2014-Aug-20 22:33N 62°12' W 008°06'21 0.8
2014-Aug-19 21:33N 61°59' W 007°30'13 1.8
2014-Aug-19 14:24N 61°50' W 007°49'7 2.5
2014-Aug-19 11:30N 61°45' W 007°38'8 7.0
2014-Aug-19 10:17N 61°37' W 007°33'25 2.4
2014-Aug-19 00:03N 61°19' W 006°57'9 3.6
2014-Aug-18 21:34N 61°12' W 006°46'5 5.0
2014-Aug-18 20:33N 61°15' W 006°39'36 1.4
2014-Aug-17 18:33N 61°49' W 007°05'4 3.9
2014-Aug-17 17:31N 61°45' W 007°07'3 2.8
2014-Aug-17 16:20N 61°42' W 007°04'10 8.5
2014-Aug-17 15:12N 61°41' W 007°24'2 2.8
2014-Aug-17 14:33N 61°43' W 007°23'4 3.6
2014-Aug-17 13:34N 61°46' W 007°22'4 3.7
2014-Aug-17 12:32N 61°50' W 007°21'4 3.9
2014-Aug-17 11:33N 61°53' W 007°24'6 5.6
2014-Aug-17 10:34N 61°56' W 007°14'  
Track history (hours):
 
Tides and Currents Weather Stations Pressure Air Temp Water Temp Dewpoint Dewpoint Depression Visibility Wind Speed Wind Dir Waves Ship Positions

Oceanographic research ship Magnus Heinason (Faroe Islands)

Detailed information on ship capabilities available from ARCUS's ALIAS (Arctic Logistics Information and Support) project.

Last reported at 2014-Aug-27 10:33 UTC. Time now 2014-Aug-27 11:13 UTC.
Position N 62°00' W 006°46'.

Length 44 m; draft 4 m.

Type: . MMSI: 231041000.

Date/timePositionNaut miles runAvg speedWind from/ knotsBaromVisibWave heightAir tempDewpointWater temp
2014-Aug-27 10:33N 62°00' W 006°46'0 0.0
2014-Aug-27 09:34N 62°00' W 006°46'0 0.0
2014-Aug-27 08:34N 62°00' W 006°46'0 0.0
2014-Aug-27 07:33N 62°00' W 006°46'0 0.0
2014-Aug-27 06:33N 62°00' W 006°46'0 0.0
2014-Aug-27 05:33N 62°00' W 006°46'0 0.0
2014-Aug-27 04:34N 62°00' W 006°46'0 0.0
2014-Aug-27 03:34N 62°00' W 006°46'0 0.0
2014-Aug-27 02:34N 62°00' W 006°46'0 0.0
2014-Aug-27 01:33N 62°00' W 006°46'0 0.0
2014-Aug-27 00:33N 62°00' W 006°46'0 0.0
2014-Aug-26 23:32N 62°00' W 006°46'0 0.0
2014-Aug-26 22:33N 62°00' W 006°46'0 0.0
2014-Aug-26 21:33N 62°00' W 006°46'0 0.0
2014-Aug-26 20:34N 62°00' W 006°46'0 0.0
2014-Aug-26 19:33N 62°00' W 006°46'0 0.0
2014-Aug-26 18:33N 62°00' W 006°46'0 0.0
2014-Aug-26 17:34N 62°00' W 006°46'0 0.0
2014-Aug-26 16:34N 62°00' W 006°46'0 0.0
2014-Aug-26 15:33N 62°00' W 006°46'0 0.0
2014-Aug-26 14:33N 62°00' W 006°46'0 0.0
2014-Aug-26 13:33N 62°00' W 006°46'0 0.0
2014-Aug-26 12:33N 62°00' W 006°46'0 0.0
2014-Aug-26 11:33N 62°00' W 006°46'0 0.0
2014-Aug-26 10:33N 62°00' W 006°46'0 0.0
2014-Aug-26 09:33N 62°00' W 006°46'0 0.0
2014-Aug-26 08:33N 62°00' W 006°46'0 0.0
2014-Aug-26 07:34N 62°00' W 006°46'0 0.0
2014-Aug-26 06:33N 62°00' W 006°46'0 0.0
2014-Aug-26 05:33N 62°00' W 006°46'0 0.0
2014-Aug-26 04:33N 62°00' W 006°46'0 0.0
2014-Aug-26 03:33N 62°00' W 006°46'0 0.0
2014-Aug-26 02:34N 62°00' W 006°46'0 0.0
2014-Aug-26 01:33N 62°00' W 006°46'0 0.0
2014-Aug-26 00:33N 62°00' W 006°46'0 0.0
2014-Aug-25 23:33N 62°00' W 006°46'0 0.0
2014-Aug-25 22:33N 62°00' W 006°46'0 0.0
2014-Aug-25 21:33N 62°00' W 006°46'0 0.0
2014-Aug-25 20:33N 62°00' W 006°46'0 0.0
2014-Aug-25 19:33N 62°00' W 006°46'0 0.0
2014-Aug-25 18:33N 62°00' W 006°46'0 0.0
2014-Aug-25 17:33N 62°00' W 006°46'0 0.0
2014-Aug-25 16:34N 62°00' W 006°46'0 0.0
2014-Aug-25 15:33N 62°00' W 006°46'4 3.5
2014-Aug-25 14:33N 62°03' W 006°51'2 2.2
2014-Aug-25 13:32N 62°04' W 006°47'5 5.2
2014-Aug-25 12:34N 62°09' W 006°46'2 2.4
2014-Aug-25 11:33N 62°07' W 006°45'4 4.4
2014-Aug-25 10:33N 62°06' W 006°35'5 5.0
2014-Aug-25 09:32N 62°11' W 006°32'10 9.6
2014-Aug-25 08:33N 62°03' W 006°41'3 3.4
2014-Aug-25 07:34N 62°00' W 006°46'0 0.0
2014-Aug-25 06:33N 62°00' W 006°46'0 0.0
2014-Aug-25 05:34N 62°00' W 006°46'0 0.0
2014-Aug-25 04:33N 62°00' W 006°46'0 0.0
2014-Aug-25 03:34N 62°00' W 006°46'0 0.0
2014-Aug-25 02:34N 62°00' W 006°46'0 0.0
2014-Aug-25 01:33N 62°00' W 006°46'0 0.0
2014-Aug-25 00:34N 62°00' W 006°46'0 0.0
2014-Aug-24 23:34N 62°00' W 006°46'0 0.0
2014-Aug-24 22:33N 62°00' W 006°46'0 0.0
2014-Aug-24 21:33N 62°00' W 006°46'0 0.0
2014-Aug-24 20:34N 62°00' W 006°46'0 0.0
2014-Aug-24 19:33N 62°00' W 006°46'0 0.0
2014-Aug-24 18:33N 62°00' W 006°46'0 0.0
2014-Aug-24 17:34N 62°00' W 006°46'0 0.0
2014-Aug-24 16:33N 62°00' W 006°46'0 0.0
2014-Aug-24 15:33N 62°00' W 006°46'0 0.0
2014-Aug-24 14:34N 62°00' W 006°46'0 0.0
2014-Aug-24 13:33N 62°00' W 006°46'0 0.0
2014-Aug-24 12:33N 62°00' W 006°46'0 0.0
2014-Aug-24 11:34N 62°00' W 006°46'0 0.0
2014-Aug-24 10:34N 62°00' W 006°46'0 0.0
2014-Aug-24 09:33N 62°00' W 006°46'0 0.0
2014-Aug-24 08:34N 62°00' W 006°46'0 0.0
2014-Aug-24 07:34N 62°00' W 006°46'0 0.0
2014-Aug-24 06:33N 62°00' W 006°46'0 0.0
2014-Aug-24 05:34N 62°00' W 006°46'0 0.0
2014-Aug-24 04:33N 62°00' W 006°46'0 0.0
2014-Aug-24 03:33N 62°00' W 006°46'0 0.0
2014-Aug-24 02:33N 62°00' W 006°46'0 0.0
2014-Aug-24 01:34N 62°00' W 006°46'0 0.0
2014-Aug-24 00:34N 62°00' W 006°46'0 0.0
2014-Aug-23 23:34N 62°00' W 006°46'0 0.0
2014-Aug-23 22:33N 62°00' W 006°46'0 0.0
2014-Aug-23 21:33N 62°00' W 006°46'0 0.0
2014-Aug-23 20:34N 62°00' W 006°46'0 0.2
2014-Aug-23 19:34N 62°00' W 006°46'0 0.0
2014-Aug-23 03:34N 62°00' W 006°46'0 0.0
2014-Aug-23 02:34N 62°00' W 006°46'0 0.0
2014-Aug-23 01:33N 62°00' W 006°46'0 0.0
2014-Aug-23 00:34N 62°00' W 006°46'0 0.0
2014-Aug-22 23:34N 62°00' W 006°46'0 0.0
2014-Aug-22 22:34N 62°00' W 006°46'0 0.0
2014-Aug-22 21:34N 62°00' W 006°46'0 0.0
2014-Aug-22 20:33N 62°00' W 006°46'0 0.0
2014-Aug-22 19:33N 62°00' W 006°46'0 0.0
2014-Aug-22 18:34N 62°00' W 006°46'0 0.0
2014-Aug-22 17:34N 62°00' W 006°46'0 0.0
2014-Aug-22 16:34N 62°00' W 006°46'0 0.0
2014-Aug-22 15:34N 62°00' W 006°46'0 0.0
2014-Aug-22 14:34N 62°00' W 006°46'0 0.0
2014-Aug-22 13:34N 62°00' W 006°46'0 0.0
2014-Aug-22 12:33N 62°00' W 006°46'0 0.0
2014-Aug-22 11:33N 62°00' W 006°46'0 0.0
2014-Aug-22 10:33N 62°00' W 006°46'0 0.0
2014-Aug-22 09:33N 62°00' W 006°46'0 0.0
2014-Aug-22 08:33N 62°00' W 006°46'0 0.0
2014-Aug-22 07:34N 62°00' W 006°46'0 0.0
2014-Aug-22 06:34N 62°00' W 006°46'0 0.0
2014-Aug-22 05:33N 62°00' W 006°46'0 0.0
2014-Aug-22 04:34N 62°00' W 006°46'0 0.0
2014-Aug-22 03:33N 62°00' W 006°46'0 0.0
2014-Aug-22 02:34N 62°00' W 006°46'0 0.0
2014-Aug-22 01:33N 62°00' W 006°46'0 0.0
2014-Aug-22 00:34N 62°00' W 006°46'0 0.0
2014-Aug-21 23:34N 62°00' W 006°46'0 0.0
2014-Aug-21 22:34N 62°00' W 006°46'0 0.0
2014-Aug-21 21:34N 62°00' W 006°46'0 0.0
2014-Aug-21 20:34N 62°00' W 006°46'0 0.0
2014-Aug-21 19:34N 62°00' W 006°46'0 0.0
2014-Aug-21 18:34N 62°00' W 006°46'0 0.0
2014-Aug-21 17:34N 62°00' W 006°46'0 0.1
2014-Aug-21 16:34N 62°00' W 006°46'4 3.6
2014-Aug-21 15:34N 61°57' W 006°50'9 8.6
2014-Aug-21 14:34N 62°04' W 007°02'11 5.3
2014-Aug-21 12:27N 62°11' W 007°20'10 2.4
2014-Aug-21 08:33N 62°13' W 007°39'1 1.3
2014-Aug-21 07:34N 62°13' W 007°41'7 3.4
2014-Aug-21 05:31N 62°20' W 007°39'7 3.6
2014-Aug-21 03:33N 62°25' W 007°50'3 2.8
2014-Aug-21 02:33N 62°26' W 007°55'9 4.5
2014-Aug-21 00:30N 62°17' W 007°52'4 4.8
2014-Aug-20 23:33N 62°14' W 007°59'4 3.9
2014-Aug-20 22:33N 62°12' W 008°06'21 0.8
2014-Aug-19 21:33N 61°59' W 007°30'13 1.8
2014-Aug-19 14:24N 61°50' W 007°49'7 2.5
2014-Aug-19 11:30N 61°45' W 007°38'8 7.0
2014-Aug-19 10:17N 61°37' W 007°33'25 2.4
2014-Aug-19 00:03N 61°19' W 006°57'9 3.6
2014-Aug-18 21:34N 61°12' W 006°46'5 5.0
2014-Aug-18 20:33N 61°15' W 006°39'36 1.4
2014-Aug-17 18:33N 61°49' W 007°05'4 3.9
2014-Aug-17 17:31N 61°45' W 007°07'3 2.8
2014-Aug-17 16:20N 61°42' W 007°04'10 8.5
2014-Aug-17 15:12N 61°41' W 007°24'2 2.8
2014-Aug-17 14:33N 61°43' W 007°23'4 3.6
2014-Aug-17 13:34N 61°46' W 007°22'4 3.7
2014-Aug-17 12:32N 61°50' W 007°21'4 3.9
2014-Aug-17 11:33N 61°53' W 007°24'6 5.6
2014-Aug-17 10:34N 61°56' W 007°14'  

Dump ship's entire track history